Newfields, New Hampshire
Current Conditions -  °F | °C
As of 2:58 PM on Thursday 23 Oct 2014 (Local Time) from KPSM Reporting Station
Drizzle Drizzle  
Wind Chill: 52°   Ceiling: 800
Heat Index: 52°   Visibility: 7mi
Dew Point: 49°   Wind: 16mph
Humidity: 91%   Direction: 20°NNE
Pressure: 29.66"   Gusts: 28mph
Location:  43.04°N, 70.94°W
Report Text: KPSM 231858Z 02014G24KT 7SM -DZ OVC008 11/10 A2966 RMK AO2A PK WND 01029/39 SLP048 P0000 T01110097
Loading
Personal Weather Stations






























Interactive Weather Map
Tropical Storm Tracking
New forecast layout! Learn more

10-Day Weather Forecast

Advertisements
Track Severe Weather on mobile